Terminal Aerodrome Forecast
Issued by NWS Norman, OK

Home | Current Version | Previous Version | Text Only | Print | Product List | Glossary On
Versions: 1 2 3 4 5 6 7 8 9 10 11 12 13 14 15 16 17 18 19 20 21 22 23 24 25 26 27 28 29 30 31 32 33 34 35 36 37 38
000
FTUS44 KOUN 301733
TAFOKC
TAF
KOKC 301733Z 3018/3118 15007KT P6SM SCT025
      TEMPO 3018/3020 BKN025
     FM310100 13009KT P6SM SCT100 BKN250
     FM310800 11008KT P6SM BKN018=

USA.gov is the U.S. government's official web portal to all federal, state and local government web resources and services.